Time;durP1;ratioP1;P1;durP2;ratioP2;P2;SDS_P1;SDS_P2;PMS_P1;PMS_P2;Temp;Humidity;BMP_temperature;BMP_pressure;BME280_temperature;BME280_humidity;BME280_pressure;Samples;Min_cycle;Max_cycle;Signal;HPM_P1;HPM_P2
2021/05/19 00:02:15;;;;;;;8.95;3.35;;;;;;;12.23;98.19;98866.08;1752832;82;21167;-84
2021/05/19 00:05:20;;;;;;;7.60;2.42;;;;;;;12.23;98.50;98859.22;1752997;82;21376;-84
2021/05/19 00:08:26;;;;;;;6.28;2.50;;;;;;;12.25;98.78;98847.52;1752129;82;21856;-84
2021/05/19 00:11:32;;;;;;;10.50;3.00;;;;;;;12.26;98.75;98846.45;1752863;82;21175;-84
2021/05/19 00:14:38;;;;;;;8.48;3.10;;;;;;;12.22;98.69;98840.56;1752928;82;21341;-82
2021/05/19 00:17:52;;;;;;;7.47;2.80;;;;;;;12.20;98.77;98839.12;1752755;82;21333;-84
2021/05/19 00:20:57;;;;;;;7.78;3.22;;;;;;;12.18;98.95;98852.20;1752986;82;21274;-82
2021/05/19 00:24:04;;;;;;;7.78;2.95;;;;;;;12.17;99.14;98848.62;1752804;82;21305;-83
2021/05/19 00:27:10;;;;;;;9.83;3.20;;;;;;;12.16;99.32;98862.55;1752917;82;21204;-82
2021/05/19 00:30:19;;;;;;;8.28;2.77;;;;;;;12.15;99.61;98859.52;1752877;82;21155;-82
2021/05/19 00:33:24;;;;;;;12.13;3.70;;;;;;;12.15;99.91;98857.61;1752909;82;21970;-84
2021/05/19 00:36:30;;;;;;;8.75;3.22;;;;;;;12.17;100.00;98854.64;1752956;82;21332;-82
2021/05/19 00:39:37;;;;;;;7.37;3.37;;;;;;;12.20;100.00;98843.24;1752779;82;21694;-84
2021/05/19 00:42:43;;;;;;;15.43;2.70;;;;;;;12.21;100.00;98848.48;1752954;82;21309;-82
2021/05/19 00:45:49;;;;;;;3.90;2.10;;;;;;;12.20;100.00;98854.20;1732251;82;21839;-82
2021/05/19 00:48:55;;;;;;;10.23;3.05;;;;;;;12.17;100.00;98858.75;1751891;82;21357;-82
2021/05/19 00:52:00;;;;;;;10.65;3.02;;;;;;;12.15;100.00;98849.92;1752933;82;21321;-82
2021/05/19 00:55:06;;;;;;;7.22;3.25;;;;;;;12.11;100.00;98843.20;1752875;82;21337;-82
2021/05/19 00:58:11;;;;;;;15.30;3.58;;;;;;;12.10;100.00;98848.38;1752508;82;21172;-82
2021/05/19 01:01:18;;;;;;;10.65;3.50;;;;;;;12.06;100.00;98847.14;1737335;82;21240;-82
2021/05/19 01:04:25;;;;;;;13.32;3.25;;;;;;;12.00;100.00;98837.38;1729048;83;21348;-84
2021/05/19 01:09:34;;;;;;;11.40;3.62;;;;;;;11.97;100.00;98831.48;1728535;83;21327;-84
2021/05/19 01:10:48;;;;;;;9.90;3.00;;;;;;;11.95;100.00;98833.09;1729061;83;21268;-81
2021/05/19 01:13:54;;;;;;;11.15;3.27;;;;;;;11.94;100.00;98839.61;1728890;83;21250;-82
2021/05/19 01:17:00;;;;;;;11.00;3.30;;;;;;;11.92;100.00;98835.42;1713272;83;21900;-84
2021/05/19 01:20:08;;;;;;;5.83;2.60;;;;;;;11.92;100.00;98836.27;1690921;83;21314;-82
2021/05/19 01:23:15;;;;;;;9.48;3.27;;;;;;;11.94;100.00;98832.75;1713290;83;21303;-84
2021/05/19 01:26:22;;;;;;;14.07;3.30;;;;;;;11.97;100.00;98817.25;1728314;83;21172;-82
2021/05/19 01:29:28;;;;;;;8.78;3.17;;;;;;;11.98;100.00;98821.66;1709196;83;21306;-84
2021/05/19 01:32:33;;;;;;;8.83;3.37;;;;;;;11.96;100.00;98827.91;1709568;83;21339;-82
2021/05/19 01:35:39;;;;;;;7.28;3.17;;;;;;;11.96;100.00;98824.34;1728971;83;21283;-81
2021/05/19 01:38:46;;;;;;;7.40;2.75;;;;;;;11.96;100.00;98816.95;1709528;83;21164;-82
2021/05/19 01:41:52;;;;;;;9.43;3.15;;;;;;;11.99;100.00;98815.12;1728955;83;21200;-82
2021/05/19 01:44:56;;;;;;;6.35;2.77;;;;;;;12.00;100.00;98820.93;1728933;83;21226;-82
2021/05/19 01:47:57;;;;;;;11.90;4.37;;;;;;;12.03;100.00;98812.25;1728789;83;21206;-82
2021/05/19 01:51:03;;;;;;;8.43;3.30;;;;;;;12.06;100.00;98819.73;1729275;83;21774;-81
2021/05/19 01:54:10;;;;;;;9.85;3.58;;;;;;;12.09;100.00;98811.05;1728946;83;21184;-82
2021/05/19 01:57:16;;;;;;;9.20;3.80;;;;;;;12.14;100.00;98808.47;1729026;83;21302;-84
2021/05/19 02:00:25;;;;;;;10.82;3.65;;;;;;;12.19;100.00;98814.16;1728890;83;21338;-83
2021/05/19 02:03:31;;;;;;;11.30;4.00;;;;;;;12.24;100.00;98828.03;1728875;83;21319;-83
2021/05/19 02:06:49;;;;;;;12.05;4.05;;;;;;;12.32;100.00;98823.62;1728864;83;21192;-82
2021/05/19 02:09:56;;;;;;;17.85;6.12;;;;;;;12.35;100.00;98820.44;1728951;83;21200;-81
2021/05/19 02:13:07;;;;;;;14.55;5.42;;;;;;;12.41;100.00;98812.67;1728924;83;21196;-84
2021/05/19 02:16:17;;;;;;;10.40;4.80;;;;;;;12.47;100.00;98804.95;1708836;83;21168;-82
2021/05/19 02:19:22;;;;;;;10.68;5.08;;;;;;;12.51;100.00;98802.06;1728584;83;21324;-82
2021/05/19 02:22:29;;;;;;;9.53;4.78;;;;;;;12.51;100.00;98800.69;1691561;83;21366;-83
2021/05/19 02:25:34;;;;;;;12.63;5.00;;;;;;;12.50;100.00;98792.13;1729047;83;21311;-84
2021/05/19 02:28:40;;;;;;;11.78;4.55;;;;;;;12.52;100.00;98788.66;1728901;83;21343;-82
2021/05/19 02:31:47;;;;;;;11.83;4.28;;;;;;;12.53;100.00;98790.32;1728733;83;21299;-84
2021/05/19 02:34:53;;;;;;;11.33;4.12;;;;;;;12.54;100.00;98791.99;1728955;83;21184;-84
2021/05/19 02:37:58;;;;;;;9.18;4.33;;;;;;;12.58;100.00;98791.55;1728890;83;21327;-85
2021/05/19 02:41:03;;;;;;;8.33;4.40;;;;;;;12.63;100.00;98798.56;1728948;83;21826;-84
2021/05/19 02:44:08;;;;;;;11.70;4.10;;;;;;;12.69;100.00;98797.66;1728894;83;21200;-82
2021/05/19 02:47:13;;;;;;;16.45;4.70;;;;;;;12.73;100.00;98798.88;1728918;83;21188;-82
2021/05/19 02:50:19;;;;;;;8.95;5.00;;;;;;;12.76;100.00;98802.02;1728713;83;21276;-84
2021/05/19 02:53:25;;;;;;;10.53;3.90;;;;;;;12.83;100.00;98799.19;1713321;83;21177;-84
2021/05/19 02:56:31;;;;;;;9.13;4.00;;;;;;;12.87;100.00;98794.09;1728969;83;21810;-82
2021/05/19 02:59:37;;;;;;;8.25;4.42;;;;;;;12.90;100.00;98794.48;1728898;83;21315;-82
2021/05/19 03:02:42;;;;;;;11.18;4.30;;;;;;;12.88;99.63;98799.34;1728546;82;21861;-84
2021/05/19 03:05:48;;;;;;;10.63;5.40;;;;;;;12.86;99.34;98789.14;1713080;83;21272;-82
2021/05/19 03:08:55;;;;;;;13.15;4.67;;;;;;;12.80;99.10;98794.17;1728788;83;21224;-82
2021/05/19 03:12:01;;;;;;;13.85;4.28;;;;;;;12.76;99.15;98791.05;1741536;81;21328;-82
2021/05/19 03:15:07;;;;;;;9.78;3.27;;;;;;;12.75;99.30;98809.95;1739331;82;21803;-84
2021/05/19 03:18:14;;;;;;;9.75;3.60;;;;;;;12.75;99.52;98812.69;1739600;82;21169;-84
2021/05/19 03:21:20;;;;;;;8.05;2.50;;;;;;;12.77;99.84;98819.31;1752853;81;21316;-85
2021/05/19 03:24:26;;;;;;;11.95;3.08;;;;;;;12.81;100.00;98830.69;1753724;81;21167;-82
2021/05/19 03:27:33;;;;;;;7.90;2.70;;;;;;;12.85;100.00;98833.28;1766559;81;21977;-84
2021/05/19 03:30:39;;;;;;;8.25;2.87;;;;;;;12.90;100.00;98823.30;1752795;81;21189;-82
2021/05/19 03:33:39;;;;;;;12.65;4.67;;;;;;;12.90;100.00;98819.72;1757102;81;21189;-84
2021/05/19 03:36:45;;;;;;;5.17;2.35;;;;;;;12.91;100.00;98822.22;1752491;81;21790;-82
2021/05/19 03:39:51;;;;;;;13.13;2.67;;;;;;;12.93;100.00;98814.59;1758134;81;21794;-84
2021/05/19 03:42:56;;;;;;;8.40;3.33;;;;;;;12.99;100.00;98812.86;1752939;81;21161;-84
2021/05/19 03:46:02;;;;;;;9.75;2.80;;;;;;;13.04;100.00;98811.11;1745155;81;21819;-83
2021/05/19 03:49:10;;;;;;;8.18;3.00;;;;;;;13.10;100.00;98815.38;1754821;81;21819;-82
2021/05/19 03:52:17;;;;;;;5.87;2.60;;;;;;;13.11;99.84;98813.77;1750887;79;21743;-84
2021/05/19 03:55:23;;;;;;;14.18;3.15;;;;;;;13.10;99.56;98812.63;1746801;79;21240;-82
2021/05/19 03:58:30;;;;;;;3.33;2.05;;;;;;;13.12;99.46;98812.69;1740560;81;21217;-82
2021/05/19 04:01:36;;;;;;;11.03;2.52;;;;;;;13.15;99.31;98811.41;1754690;79;22070;-82
2021/05/19 04:04:41;;;;;;;7.33;2.65;;;;;;;13.16;99.02;98808.42;1757523;80;21256;-84
2021/05/19 04:07:48;;;;;;;7.85;3.10;;;;;;;13.16;98.94;98814.45;1752767;80;21816;-84
2021/05/19 04:10:54;;;;;;;12.03;3.45;;;;;;;13.18;99.00;98815.08;1747589;80;21264;-82
2021/05/19 04:14:00;;;;;;;13.93;3.17;;;;;;;13.24;99.24;98812.27;1751284;80;21481;-82
2021/05/19 04:17:06;;;;;;;6.42;2.22;;;;;;;13.30;99.18;98809.97;1751979;80;21275;-81
2021/05/19 04:20:13;;;;;;;9.18;2.80;;;;;;;13.34;98.99;98813.09;1747990;80;21296;-83
2021/05/19 04:23:22;;;;;;;9.33;3.50;;;;;;;13.37;98.80;98808.53;1758118;80;21276;-81
2021/05/19 04:26:29;;;;;;;10.82;2.72;;;;;;;13.42;98.68;98809.21;1745264;81;21141;-84
2021/05/19 04:29:35;;;;;;;12.23;2.87;;;;;;;13.48;98.54;98823.38;1764462;79;21296;-84
2021/05/19 04:32:42;;;;;;;8.28;2.62;;;;;;;13.52;98.35;98821.85;1756444;79;21261;-84
2021/05/19 04:35:48;;;;;;;9.48;2.83;;;;;;;13.60;98.10;98812.43;1755941;79;21811;-82
2021/05/19 04:38:56;;;;;;;12.28;2.85;;;;;;;13.67;97.61;98815.94;1757255;79;21149;-82
2021/05/19 04:42:01;;;;;;;15.35;3.02;;;;;;;13.71;97.10;98806.16;1744831;80;21129;-82
2021/05/19 04:45:07;;;;;;;9.40;2.80;;;;;;;13.74;96.37;98809.84;1758126;80;21266;-83
2021/05/19 04:48:13;;;;;;;13.58;2.90;;;;;;;13.76;95.82;98818.13;1759539;79;21288;-83
2021/05/19 04:51:20;;;;;;;15.15;2.83;;;;;;;13.81;95.62;98813.31;1753764;80;21145;-83
2021/05/19 04:54:27;;;;;;;12.63;2.40;;;;;;;13.91;95.53;98814.95;1754493;80;21327;-85
2021/05/19 04:57:33;;;;;;;13.90;2.42;;;;;;;14.01;95.36;98819.34;1755213;80;21319;-83
2021/05/19 05:00:39;;;;;;;9.20;3.33;;;;;;;14.06;94.23;98833.22;1757838;80;21266;-83
2021/05/19 05:03:45;;;;;;;6.75;2.40;;;;;;;14.10;93.40;98828.63;1755373;79;21821;-84
2021/05/19 05:06:53;;;;;;;10.50;2.40;;;;;;;14.18;93.33;98823.64;1747834;79;21948;-82
2021/05/19 05:10:01;;;;;;;8.00;2.72;;;;;;;14.40;93.82;98825.30;1747785;79;21885;-83
2021/05/19 05:13:09;;;;;;;9.15;2.20;;;;;;;14.63;93.32;98831.38;1727862;79;21815;-84
2021/05/19 05:16:18;;;;;;;6.22;2.00;;;;;;;14.79;91.89;98824.33;1751305;79;21288;-84
2021/05/19 05:19:27;;;;;;;6.43;2.23;;;;;;;14.94;90.94;98826.05;1747431;79;21701;-84
2021/05/19 05:22:34;;;;;;;12.40;3.17;;;;;;;15.11;89.38;98833.05;1736569;80;21522;-85
2021/05/19 05:25:41;;;;;;;11.73;2.45;;;;;;;15.25;88.38;98828.95;1749430;79;21633;-83
2021/05/19 05:28:48;;;;;;;13.75;2.22;;;;;;;15.33;87.71;98829.94;1744083;79;21193;-84
2021/05/19 05:31:53;;;;;;;6.65;2.17;;;;;;;15.46;86.87;98834.34;1746203;81;21193;-83
2021/05/19 05:35:02;;;;;;;;;;;;;;;15.49;85.29;98847.64;1745635;81;21292;-82
2021/05/19 05:38:07;;;;;;;9.60;2.17;;;;;;;15.49;84.40;98853.16;1747298;81;20287;-83
2021/05/19 05:41:16;;;;;;;13.85;2.50;;;;;;;15.44;83.91;98853.05;1744594;81;22140;-82
2021/05/19 05:44:28;;;;;;;12.55;2.42;;;;;;;15.46;84.53;98860.52;1739549;79;22149;-87
2021/05/19 05:47:21;;;;;;;8.03;2.62;;;;;;;15.40;83.99;98855.16;1746129;79;21287;-86
2021/05/19 05:50:27;;;;;;;7.10;1.65;;;;;;;15.37;83.70;98860.59;1686531;82;21212;-86
2021/05/19 05:53:42;;;;;;;7.90;2.02;;;;;;;15.40;83.89;98857.37;1738999;79;22506;-84
2021/05/19 05:56:51;;;;;;;10.98;2.08;;;;;;;15.60;84.66;98860.54;1750456;79;21221;-85
2021/05/19 06:00:16;;;;;;;11.65;3.37;;;;;;;15.98;84.97;98851.39;1743586;79;21612;-85
2021/05/19 06:03:26;;;;;;;8.85;2.10;;;;;;;16.49;85.02;98846.79;1736377;79;22062;-86
2021/05/19 06:06:43;;;;;;;10.90;1.95;;;;;;;16.92;82.85;98844.75;1747075;79;21306;-86
2021/05/19 06:09:52;;;;;;;13.88;2.30;;;;;;;17.26;80.58;98841.91;1752365;79;21418;-85
2021/05/19 06:13:00;;;;;;;14.63;2.40;;;;;;;17.55;79.00;98852.23;1751412;80;21329;-82
2021/05/19 06:16:05;;;;;;;9.33;2.95;;;;;;;17.72;78.11;98848.04;1753384;79;21897;-80
2021/05/19 06:19:15;;;;;;;7.10;2.25;;;;;;;17.65;75.51;98851.56;1751490;80;21291;-82
2021/05/19 06:22:22;;;;;;;9.90;2.65;;;;;;;17.56;75.82;98852.00;1755025;79;21213;-82
2021/05/19 06:25:29;;;;;;;8.08;2.42;;;;;;;17.65;75.86;98841.89;1751028;79;21298;-82
2021/05/19 06:28:36;;;;;;;13.65;2.42;;;;;;;17.69;75.57;98841.63;1750926;79;21193;-82
2021/05/19 06:31:42;;;;;;;6.20;1.42;;;;;;;17.80;75.69;98832.41;1750180;79;21765;-83
2021/05/19 06:34:49;;;;;;;8.33;1.92;;;;;;;18.00;75.49;98833.17;1698756;83;21291;-82
2021/05/19 06:37:55;;;;;;;9.80;1.80;;;;;;;18.11;74.03;98831.66;1718803;82;21603;-81
2021/05/19 06:41:02;;;;;;;5.25;1.77;;;;;;;18.23;73.29;98824.56;1692814;82;21193;-80
2021/05/19 06:44:09;;;;;;;10.40;2.52;;;;;;;18.35;72.45;98814.17;1695999;83;21308;-80
2021/05/19 06:47:15;;;;;;;12.58;2.58;;;;;;;18.34;71.66;98818.56;1713580;81;21325;-82
2021/05/19 06:50:20;;;;;;;13.93;2.35;;;;;;;18.18;71.05;98821.74;1716699;82;21335;-81
2021/05/19 06:53:28;;;;;;;8.05;2.08;;;;;;;17.97;71.03;98826.77;1678162;82;21347;-83
2021/05/19 06:56:35;;;;;;;6.92;2.35;;;;;;;17.80;71.83;98825.50;1704013;82;21224;-86
2021/05/19 06:59:41;;;;;;;7.80;1.90;;;;;;;17.77;72.25;98825.45;1663730;82;21597;-87
2021/05/19 07:02:51;;;;;;;;;;;;;;;17.85;72.63;98825.55;1684365;83;21225;-81
2021/05/19 07:05:56;;;;;;;10.50;1.95;;;;;;;18.02;71.71;98833.22;1699101;82;20309;-79
2021/05/19 07:09:02;;;;;;;12.90;2.02;;;;;;;18.07;72.60;98822.20;1695828;82;22305;-83
2021/05/19 07:12:09;;;;;;;9.30;1.67;;;;;;;18.18;70.90;98812.61;1706943;81;21276;-82
2021/05/19 07:15:18;;;;;;;8.53;2.20;;;;;;;18.37;70.85;98805.59;1703703;81;21677;-81
2021/05/19 07:18:25;;;;;;;7.25;1.47;;;;;;;18.57;69.11;98807.13;1703258;81;21402;-81
2021/05/19 07:21:31;;;;;;;7.83;2.30;;;;;;;18.79;69.69;98807.06;1702169;83;21189;-82
2021/05/19 07:24:39;;;;;;;9.63;1.80;;;;;;;18.79;67.89;98804.84;1703444;81;21236;-81
2021/05/19 07:27:49;;;;;;;9.58;2.00;;;;;;;18.54;68.60;98802.14;1705899;82;22271;-86
2021/05/19 07:30:54;;;;;;;7.85;2.05;;;;;;;18.36;68.23;98803.92;1686216;83;21419;-89
2021/05/19 07:34:00;;;;;;;6.37;1.92;;;;;;;18.38;70.50;98805.87;1704623;82;21339;-88
2021/05/19 07:37:05;;;;;;;8.28;2.05;;;;;;;18.54;68.92;98800.76;1705567;81;21815;-88
2021/05/19 07:40:13;;;;;;;7.42;2.10;;;;;;;18.72;68.79;98805.61;1707001;83;21926;-87
2021/05/19 07:43:19;;;;;;;6.70;1.62;;;;;;;18.94;68.11;98786.10;1689681;83;22024;-88
2021/05/19 07:46:25;;;;;;;8.18;2.20;;;;;;;19.03;68.46;98785.33;1709181;83;21689;-86
2021/05/19 07:49:30;;;;;;;12.63;1.85;;;;;;;19.19;66.63;98791.77;1705396;82;21316;-87
2021/05/19 07:52:35;;;;;;;11.88;1.87;;;;;;;19.25;65.95;98792.66;1711190;81;21194;-87
2021/05/19 07:55:48;;;;;;;10.43;1.80;;;;;;;19.30;66.49;98786.58;1707994;83;21802;-88
2021/05/19 07:59:02;;;;;;;3.85;1.50;;;;;;;19.32;66.31;98790.45;1709028;82;21181;-88
2021/05/19 08:02:02;;;;;;;11.08;1.90;;;;;;;19.28;67.37;98792.09;1709321;81;21308;-87
2021/05/19 08:05:08;;;;;;;10.43;2.05;;;;;;;19.36;65.36;98797.14;1705840;81;21933;-87
2021/05/19 08:08:15;;;;;;;7.40;1.60;;;;;;;19.42;65.01;98804.36;1690469;82;21291;-87
2021/05/19 08:11:20;;;;;;;6.58;1.75;;;;;;;19.49;66.32;98796.64;1674529;83;21354;-86
2021/05/19 08:14:29;;;;;;;8.00;1.87;;;;;;;19.74;64.56;98796.48;1697215;83;21205;-87
2021/05/19 08:17:38;;;;;;;6.70;1.55;;;;;;;19.86;63.91;98798.47;1670979;84;21622;-87
2021/05/19 08:20:47;;;;;;;8.33;2.10;;;;;;;19.92;62.23;98800.13;1674039;82;21475;-88
2021/05/19 08:23:53;;;;;;;6.72;1.60;;;;;;;19.75;61.33;98792.59;1691693;82;21235;-87
2021/05/19 08:26:59;;;;;;;7.67;1.80;;;;;;;19.38;62.30;98801.84;1700150;83;21323;-86
2021/05/19 08:30:06;;;;;;;9.13;2.00;;;;;;;19.04;63.75;98794.47;1699401;82;21312;-88
2021/05/19 08:33:14;;;;;;;9.40;1.70;;;;;;;18.82;65.04;98795.98;1701017;83;22206;-89
2021/05/19 08:36:21;;;;;;;9.50;2.15;;;;;;;18.60;66.04;98790.00;1695131;82;21853;-85
2021/05/19 08:39:27;;;;;;;4.80;1.65;;;;;;;18.64;67.32;98788.92;1691731;82;21153;-83
2021/05/19 08:42:37;;;;;;;6.50;1.30;;;;;;;18.81;66.32;98799.30;1686679;83;21766;-86
2021/05/19 08:45:46;;;;;;;8.48;0.88;;;;;;;18.82;64.77;98809.83;1692616;82;21856;-85
2021/05/19 08:49:02;;;;;;;7.62;0.75;;;;;;;18.69;61.97;98818.07;1705462;83;21645;-83
2021/05/19 08:52:04;;;;;;;1.62;0.50;;;;;;;18.38;60.58;98816.94;1707714;81;21367;-84
2021/05/19 08:55:23;;;;;;;2.00;0.42;;;;;;;17.99;60.94;98830.13;1707594;83;21809;-83
2021/05/19 08:58:31;;;;;;;4.83;0.60;;;;;;;17.75;62.74;98819.91;1706340;82;21201;-89
2021/05/19 09:01:49;;;;;;;3.70;0.37;;;;;;;17.62;63.63;98816.41;1671412;82;21137;-88
2021/05/19 09:05:03;;;;;;;1.37;0.30;;;;;;;17.51;63.65;98814.63;1693057;84;21290;-88
2021/05/19 09:08:21;;;;;;;2.25;0.37;;;;;;;17.45;64.30;98810.11;1694967;83;21859;-88
2021/05/19 09:11:28;;;;;;;3.60;0.40;;;;;;;17.43;63.14;98812.30;1707956;81;21655;-87
2021/05/19 09:14:38;;;;;;;7.90;0.57;;;;;;;17.59;63.28;98805.85;1707740;83;21260;-86
2021/05/19 09:17:45;;;;;;;0.77;0.30;;;;;;;17.84;62.72;98803.98;1671541;82;21248;-88
2021/05/19 09:20:58;;;;;;;1.65;0.42;;;;;;;18.05;63.74;98806.95;1703404;82;21473;-87
2021/05/19 09:24:22;;;;;;;2.55;0.40;;;;;;;18.26;62.88;98803.29;1676339;83;21188;-87
2021/05/19 09:28:07;;;;;;;1.32;0.50;;;;;;;18.34;63.15;98787.56;1703182;81;21539;-83
2021/05/19 09:32:28;;;;;;;6.80;1.07;;;;;;;18.50;62.89;98790.48;1707972;81;21635;-83
2021/05/19 09:35:54;;;;;;;0.90;0.50;;;;;;;18.59;63.12;98788.89;1692370;82;21294;-83
2021/05/19 09:39:44;;;;;;;0.95;0.40;;;;;;;18.74;62.78;98786.81;1689664;82;21318;-82
2021/05/19 09:43:21;;;;;;;3.35;0.75;;;;;;;18.69;63.08;98784.01;1688882;82;21312;-84
2021/05/19 09:47:13;;;;;;;1.37;0.50;;;;;;;18.77;65.13;98787.12;1697317;82;21908;-82
2021/05/19 09:50:18;;;;;;;1.57;0.45;;;;;;;18.86;65.67;98778.56;1698395;83;21878;-82
2021/05/19 09:53:27;;;;;;;2.20;0.47;;;;;;;18.82;64.98;98771.05;1708165;81;21343;-82
2021/05/19 09:56:34;;;;;;;2.45;0.62;;;;;;;18.69;65.57;98764.06;1710988;81;21536;-82
2021/05/19 09:59:50;;;;;;;1.37;0.55;;;;;;;18.59;65.68;98772.28;1708042;83;21313;-84
2021/05/19 10:02:57;;;;;;;2.95;0.40;;;;;;;18.45;66.38;98772.45;1703733;81;21318;-81
2021/05/19 10:06:25;;;;;;;0.60;0.30;;;;;;;18.08;66.10;98785.12;1702563;83;21178;-81
2021/05/19 10:09:34;;;;;;;0.57;0.30;;;;;;;17.80;66.86;98784.84;1690879;83;21205;-81
2021/05/19 10:12:39;;;;;;;0.80;0.30;;;;;;;17.55;66.89;98779.84;1699902;82;22102;-81
2021/05/19 10:15:46;;;;;;;0.53;0.30;;;;;;;17.36;67.68;98780.73;1702352;82;21253;-82
2021/05/19 10:18:56;;;;;;;0.53;0.23;;;;;;;17.32;68.35;98781.50;1699960;82;21198;-80
2021/05/19 10:22:00;;;;;;;4.58;0.45;;;;;;;17.47;68.57;98787.20;1697446;82;21674;-78
2021/05/19 10:25:15;;;;;;;0.93;0.40;;;;;;;17.64;68.20;98794.02;1698175;82;21248;-78
2021/05/19 10:28:18;;;;;;;2.60;0.68;;;;;;;17.81;69.15;98792.04;1701419;83;21308;-79
2021/05/19 10:31:43;;;;;;;1.25;0.47;;;;;;;17.98;68.94;98785.03;1701428;83;21233;-77
2021/05/19 10:35:05;;;;;;;1.32;0.37;;;;;;;18.17;68.55;98773.59;1701997;82;21312;-79
2021/05/19 10:38:36;;;;;;;2.52;0.50;;;;;;;18.35;67.90;98772.65;1701811;82;21837;-79
2021/05/19 10:41:45;;;;;;;0.72;0.47;;;;;;;18.47;66.33;98779.38;1701533;82;21312;-78
2021/05/19 10:44:58;;;;;;;2.67;0.50;;;;;;;18.54;65.44;98771.69;1669076;83;22196;-84
2021/05/19 10:48:13;;;;;;;5.60;0.50;;;;;;;18.65;64.48;98765.66;1666634;84;22289;-79
2021/05/19 10:58:57;;;;;;;1.30;0.50;;;;;;;18.90;63.46;98767.78;1665514;84;21232;-84
2021/05/19 11:02:09;;;;;;;2.50;0.70;;;;;;;19.02;63.65;98762.05;1669233;84;22063;-77
2021/05/19 11:05:25;;;;;;;2.50;0.70;;;;;;;19.03;63.66;98765.92;1667438;85;21320;-84
2021/05/19 11:08:39;;;;;;;2.22;0.62;;;;;;;18.95;64.65;98764.22;1695167;82;21249;-76
2021/05/19 11:11:47;;;;;;;;;;;;;;;18.81;65.32;98777.15;1687894;82;21605;-76
2021/05/19 11:15:07;;;;;;;6.62;0.72;;;;;;;18.53;67.62;98773.31;1694943;82;20201;-76
2021/05/19 11:18:03;;;;;;;3.80;0.50;;;;;;;18.21;70.20;98764.50;1706714;81;21264;-81
2021/05/19 11:21:10;;;;;;;0.40;0.30;;;;;;;18.05;71.74;98766.28;1707810;81;21854;-81
2021/05/19 11:24:25;;;;;;;1.85;0.50;;;;;;;18.00;71.45;98769.55;1707234;81;21890;-81
2021/05/19 11:27:31;;;;;;;2.05;0.98;;;;;;;17.93;70.90;98768.94;1687411;82;21161;-81
2021/05/19 11:30:40;;;;;;;1.15;0.50;;;;;;;17.84;70.60;98763.88;1747793;79;21624;-82
2021/05/19 11:34:06;;;;;;;7.58;0.53;;;;;;;17.67;71.32;98769.18;1746594;79;21804;-85
2021/05/19 11:37:13;;;;;;;1.87;0.53;;;;;;;17.65;70.99;98757.56;1733308;79;21957;-86
2021/05/19 11:40:21;;;;;;;1.05;0.40;;;;;;;17.66;70.18;98752.31;1723091;79;21182;-82
2021/05/19 11:43:31;;;;;;;1.10;0.40;;;;;;;17.59;70.58;98749.18;1686723;82;21661;-82
2021/05/19 11:46:35;;;;;;;1.52;0.60;;;;;;;17.58;70.73;98736.46;1744274;79;21846;-81
2021/05/19 11:49:40;;;;;;;3.10;0.50;;;;;;;17.59;71.46;98741.44;1736393;80;21387;-86
2021/05/19 11:53:01;;;;;;;0.85;0.50;;;;;;;17.53;71.84;98741.94;1748175;79;21263;-84
2021/05/19 11:56:08;;;;;;;1.17;0.40;;;;;;;17.52;72.60;98740.82;1747096;81;21178;-82
2021/05/19 11:59:35;;;;;;;1.45;0.47;;;;;;;17.65;72.79;98749.27;1737335;80;21212;-82
2021/05/19 12:02:37;;;;;;;2.60;0.70;;;;;;;17.95;72.29;98748.20;1735021;81;21503;-82
2021/05/19 12:06:03;;;;;;;1.60;0.57;;;;;;;18.30;71.90;98745.45;1748776;79;21886;-85
2021/05/19 12:09:04;;;;;;;2.60;0.50;;;;;;;18.56;70.06;98751.48;1744261;79;21878;-82
2021/05/19 12:12:21;;;;;;;1.82;0.50;;;;;;;18.76;69.47;98742.50;1735811;80;21529;-82
2021/05/19 12:15:27;;;;;;;0.95;0.45;;;;;;;18.89;69.36;98743.96;1759742;80;21259;-83
2021/05/19 12:18:31;;;;;;;1.20;0.70;;;;;;;19.05;68.39;98748.47;1728572;80;21275;-83
2021/05/19 12:21:38;;;;;;;0.95;0.55;;;;;;;19.11;67.65;98757.11;1759685;79;21275;-83
2021/05/19 12:24:45;;;;;;;1.82;0.82;;;;;;;19.12;67.28;98754.61;1764182;79;21357;-83
2021/05/19 12:27:51;;;;;;;1.82;0.80;;;;;;;19.14;67.08;98748.23;1759334;80;21586;-84
2021/05/19 12:30:59;;;;;;;3.00;0.40;;;;;;;19.22;66.73;98749.67;1766347;80;21767;-84
2021/05/19 12:34:05;;;;;;;3.15;0.40;;;;;;;19.12;66.82;98744.91;1758978;80;21291;-83
2021/05/19 12:37:11;;;;;;;2.50;0.40;;;;;;;18.93;67.33;98738.17;1746901;80;21172;-83
2021/05/19 12:40:22;;;;;;;0.78;0.40;;;;;;;18.79;68.08;98739.20;1759997;80;21178;-83
2021/05/19 12:43:35;;;;;;;0.30;0.30;;;;;;;18.77;68.85;98729.48;1764459;80;21268;-83
2021/05/19 12:46:41;;;;;;;6.03;0.62;;;;;;;18.68;69.21;98724.98;1764291;80;21295;-83
2021/05/19 12:49:48;;;;;;;3.70;0.53;;;;;;;18.46;69.97;98732.59;1759593;80;21283;-84
2021/05/19 12:52:55;;;;;;;1.42;0.53;;;;;;;18.24;71.58;98735.45;1772956;80;21314;-83
2021/05/19 12:56:16;;;;;;;0.60;0.40;;;;;;;18.05;73.15;98717.86;1768897;80;21308;-83
2021/05/19 12:59:22;;;;;;;1.55;0.55;;;;;;;18.09;73.66;98715.41;1766840;80;21172;-84
2021/05/19 13:02:33;;;;;;;3.50;0.57;;;;;;;18.20;73.92;98714.94;1769698;80;21162;-83
2021/05/19 13:05:39;;;;;;;5.40;1.27;;;;;;;18.25;73.16;98714.97;1768537;80;21302;-82
2021/05/19 13:08:46;;;;;;;1.62;0.70;;;;;;;18.29;72.81;98722.48;1763786;80;21283;-83
2021/05/19 13:12:06;;;;;;;;;;;;;;;18.31;72.70;98721.69;1766905;80;21268;-83
2021/05/19 13:15:15;;;;;;;3.60;0.70;;;;;;;18.28;74.31;98724.14;1748480;80;20557;-83
2021/05/19 13:18:42;;;;;;;4.03;0.75;;;;;;;18.34;76.21;98714.77;1748654;81;21728;-84
2021/05/19 13:21:47;;;;;;;5.67;0.90;;;;;;;18.48;76.35;98711.83;1753335;81;21158;-83
2021/05/19 13:24:54;;;;;;;1.22;0.50;;;;;;;18.59;75.96;98705.27;1762185;81;21570;-84
2021/05/19 13:28:01;;;;;;;4.25;0.60;;;;;;;18.70;75.49;98697.05;1766885;81;22113;-83
2021/05/19 13:31:06;;;;;;;1.95;0.47;;;;;;;18.80;74.71;98701.25;1767537;81;21268;-83
2021/05/19 13:36:13;;;;;;;1.85;0.85;;;;;;;18.67;73.83;98695.61;1747281;81;21296;-82
2021/05/19 13:37:22;;;;;;;0.85;0.50;;;;;;;18.47;74.68;98710.16;1727951;82;21199;-82
2021/05/19 13:40:29;;;;;;;1.00;0.40;;;;;;;18.21;75.08;98703.63;1736227;82;21156;-83
2021/05/19 13:43:35;;;;;;;0.42;0.30;;;;;;;18.04;75.88;98703.75;1728482;82;21981;-83
2021/05/19 13:46:40;;;;;;;0.62;0.40;;;;;;;17.96;75.81;98704.23;1748905;81;21180;-83
2021/05/19 13:49:47;;;;;;;2.90;0.45;;;;;;;17.97;77.00;98707.27;1740221;81;21158;-83
2021/05/19 13:52:53;;;;;;;0.47;0.40;;;;;;;18.16;78.21;98710.50;1702653;84;21805;-83
2021/05/19 13:56:04;;;;;;;0.50;0.42;;;;;;;18.22;77.89;98708.61;1759200;81;21146;-84
2021/05/19 13:59:08;;;;;;;0.65;0.30;;;;;;;18.27;78.07;98710.02;1769108;81;21205;-84
2021/05/19 14:02:20;;;;;;;2.05;0.30;;;;;;;18.37;78.43;98710.09;1765596;81;21134;-84
2021/05/19 14:05:27;;;;;;;1.12;0.40;;;;;;;18.51;78.42;98702.99;1763996;81;21965;-84
2021/05/19 14:08:34;;;;;;;1.30;0.37;;;;;;;18.53;76.07;98702.16;1781382;80;21801;-84
2021/05/19 14:14:56;;;;;;;0.30;0.30;;;;;;;18.34;75.67;98700.93;1774638;80;21276;-84
2021/05/19 14:21:35;;;;;;;0.88;0.42;;;;;;;18.30;76.30;98703.42;1783853;80;21303;-83
2021/05/19 14:27:44;;;;;;;0.20;0.20;;;;;;;18.56;75.63;98704.41;1783721;80;21292;-84
2021/05/19 14:30:50;;;;;;;0.85;0.40;;;;;;;18.64;74.33;98708.06;1778848;80;21874;-84
2021/05/19 14:33:56;;;;;;;0.40;0.40;;;;;;;18.67;72.62;98712.77;1783617;80;21295;-84
2021/05/19 14:54:11;;;;;;;0.65;0.45;;;;;;;19.13;71.49;98714.70;1783569;80;21308;-83
2021/05/19 15:00:35;;;;;;;3.02;0.60;;;;;;;18.83;72.12;98717.34;1698688;84;21357;-83
2021/05/19 15:03:40;;;;;;;1.67;0.80;;;;;;;18.49;73.15;98720.95;1688267;84;21350;-83
2021/05/19 15:06:46;;;;;;;0.70;0.60;;;;;;;18.22;73.91;98726.04;1699002;84;21342;-83
2021/05/19 15:09:53;;;;;;;1.15;0.72;;;;;;;18.02;74.55;98724.46;1688392;85;21311;-83
2021/05/19 15:13:00;;;;;;;3.45;0.72;;;;;;;17.86;75.29;98734.56;1699061;83;21195;-83
2021/05/19 15:16:07;;;;;;;0.80;0.68;;;;;;;17.66;76.34;98737.10;1694343;84;21207;-83
2021/05/19 15:19:15;;;;;;;2.60;0.90;;;;;;;17.52;77.12;98734.74;1739560;82;21227;-83
2021/05/19 15:22:20;;;;;;;0.85;0.75;;;;;;;17.33;77.71;98729.28;1739661;82;21211;-81
2021/05/19 15:25:26;;;;;;;6.75;0.90;;;;;;;17.16;78.70;98732.10;1739795;82;21164;-81